createdAt,value
2022-07-26T00:01:39.185Z,44.20
2022-07-26T00:04:27.007Z,44.30
2022-07-26T00:07:14.123Z,44.30
2022-07-26T00:10:03.106Z,44.30
2022-07-26T00:12:50.229Z,44.30
2022-07-26T00:15:37.556Z,44.30
2022-07-26T00:18:24.820Z,44.30
2022-07-26T00:21:12.459Z,44.40
2022-07-26T00:23:59.494Z,44.40
2022-07-26T00:26:47.942Z,44.40
2022-07-26T00:29:36.142Z,44.30
2022-07-26T00:32:23.561Z,44.30
2022-07-26T00:35:11.757Z,44.30
2022-07-26T00:37:59.521Z,44.40
2022-07-26T00:40:46.978Z,44.40
2022-07-26T00:43:36.398Z,44.50
2022-07-26T00:46:23.497Z,44.70
2022-07-26T00:49:11.814Z,44.70
2022-07-26T00:51:59.512Z,44.70
2022-07-26T00:54:47.633Z,44.70
2022-07-26T00:57:35.992Z,44.80
2022-07-26T01:00:27.865Z,44.70
2022-07-26T01:03:14.993Z,44.80
2022-07-26T01:06:02.273Z,44.60
2022-07-26T01:08:49.683Z,44.50
2022-07-26T01:11:36.880Z,44.60
2022-07-26T01:14:25.439Z,44.60
2022-07-26T01:17:15.186Z,44.70
2022-07-26T01:20:02.766Z,44.50
2022-07-26T01:22:51.590Z,44.60
2022-07-26T01:25:43.244Z,44.80
2022-07-26T01:28:31.742Z,44.90
2022-07-26T01:31:19.298Z,44.80
2022-07-26T01:34:07.123Z,44.90
2022-07-26T01:36:56.396Z,44.90
2022-07-26T01:39:45.840Z,45.00
2022-07-26T01:42:33.225Z,45.10
2022-07-26T01:45:20.527Z,45.20
2022-07-26T01:48:08.619Z,45.00
2022-07-26T01:50:55.758Z,45.00
2022-07-26T01:53:45.201Z,45.00
2022-07-26T01:56:33.663Z,45.10
2022-07-26T01:59:21.106Z,45.30
2022-07-26T02:02:08.641Z,45.20
2022-07-26T02:05:02.030Z,45.30
2022-07-26T02:07:49.243Z,45.40
2022-07-26T02:11:10.196Z,45.40
2022-07-26T02:13:58.644Z,45.40
2022-07-26T02:16:46.218Z,45.40
2022-07-26T02:19:34.014Z,45.50
2022-07-26T02:22:21.103Z,45.50
2022-07-26T02:25:09.092Z,45.60
2022-07-26T02:27:56.564Z,45.60
2022-07-26T02:30:46.228Z,45.70
2022-07-26T02:33:33.214Z,45.90
2022-07-26T02:36:20.592Z,45.80
2022-07-26T02:39:08.191Z,45.80
2022-07-26T02:41:56.220Z,45.80
2022-07-26T02:44:43.512Z,45.80
2022-07-26T02:47:33.079Z,45.80
2022-07-26T02:50:21.614Z,45.90
2022-07-26T02:53:09.047Z,45.90
2022-07-26T02:55:56.080Z,45.90
2022-07-26T02:58:43.162Z,45.80
2022-07-26T03:01:30.959Z,45.80
2022-07-26T03:04:19.489Z,45.90
2022-07-26T03:07:06.588Z,45.80
2022-07-26T03:09:53.686Z,45.70
2022-07-26T03:12:40.921Z,45.90
2022-07-26T03:15:28.180Z,46.00
2022-07-26T03:18:15.451Z,46.10
2022-07-26T03:21:04.654Z,46.30
2022-07-26T03:23:52.166Z,46.20
2022-07-26T03:26:39.434Z,46.30
2022-07-26T03:29:26.610Z,46.20
2022-07-26T03:32:13.705Z,46.30
2022-07-26T03:35:00.913Z,46.30
2022-07-26T03:37:49.391Z,46.30
2022-07-26T03:40:36.900Z,46.50
2022-07-26T03:43:24.367Z,46.60
2022-07-26T03:46:11.659Z,46.70
2022-07-26T03:48:59.174Z,46.60
2022-07-26T03:51:46.397Z,46.60
2022-07-26T03:54:34.909Z,46.60
2022-07-26T03:57:21.458Z,46.80
2022-07-26T04:00:11.447Z,46.80
2022-07-26T04:02:58.719Z,46.90
2022-07-26T04:05:48.905Z,46.90
2022-07-26T04:08:36.570Z,46.70
2022-07-26T04:11:26.404Z,46.60
2022-07-26T04:14:16.004Z,46.70
2022-07-26T04:17:03.283Z,46.80
2022-07-26T04:19:50.813Z,46.90
2022-07-26T04:22:40.966Z,46.90
2022-07-26T04:25:28.151Z,47.00
2022-07-26T04:28:44.978Z,46.90
2022-07-26T04:31:36.513Z,47.00
2022-07-26T04:34:23.861Z,47.00
2022-07-26T04:37:11.267Z,47.10
2022-07-26T04:39:58.431Z,47.10
2022-07-26T04:42:45.498Z,47.20
2022-07-26T04:45:34.238Z,47.30
2022-07-26T04:48:21.971Z,47.50
2022-07-26T04:51:09.503Z,47.50
2022-07-26T04:53:56.565Z,47.60
2022-07-26T04:56:43.770Z,47.70
2022-07-26T04:59:32.606Z,47.70
2022-07-26T05:02:21.722Z,47.90
2022-07-26T05:05:10.444Z,47.90
2022-07-26T05:08:00.130Z,47.90
2022-07-26T05:10:51.614Z,47.90
2022-07-26T05:13:42.307Z,47.80
2022-07-26T05:16:29.486Z,47.90
2022-07-26T05:19:18.023Z,47.80
2022-07-26T05:22:05.109Z,47.80
2022-07-26T05:24:52.430Z,47.70
2022-07-26T05:27:41.650Z,47.70
2022-07-26T05:30:29.231Z,47.90
2022-07-26T05:33:16.833Z,47.70
2022-07-26T05:36:06.081Z,47.80
2022-07-26T05:38:53.220Z,47.80
2022-07-26T05:41:40.848Z,47.90
2022-07-26T05:44:28.182Z,48.00
2022-07-26T05:47:17.575Z,47.90
2022-07-26T05:50:05.814Z,47.90
2022-07-26T05:52:54.562Z,48.60
2022-07-26T05:55:41.837Z,48.10
2022-07-26T05:58:28.977Z,48.10
2022-07-26T06:01:16.693Z,48.10
2022-07-26T06:04:09.362Z,48.00
2022-07-26T06:06:57.044Z,47.70
2022-07-26T06:09:46.003Z,47.60
2022-07-26T06:12:33.565Z,47.20
2022-07-26T06:15:20.837Z,47.40
2022-07-26T06:18:08.645Z,47.30
2022-07-26T06:20:56.207Z,47.20
2022-07-26T06:23:49.932Z,47.10
2022-07-26T06:26:38.535Z,47.10
2022-07-26T06:29:26.163Z,46.90
2022-07-26T06:32:19.736Z,47.00
2022-07-26T06:35:08.112Z,47.00
2022-07-26T06:37:55.448Z,46.90
2022-07-26T06:40:42.920Z,46.90
2022-07-26T06:43:31.616Z,46.90
2022-07-26T06:46:21.091Z,46.80
2022-07-26T06:49:08.885Z,46.80
2022-07-26T06:51:57.692Z,46.90
2022-07-26T06:54:44.946Z,46.90
2022-07-26T06:57:32.390Z,46.80
2022-07-26T07:00:21.575Z,46.80
2022-07-26T07:03:09.160Z,47.00
2022-07-26T07:05:56.557Z,46.90
2022-07-26T07:08:43.578Z,46.60
2022-07-26T07:11:32.337Z,46.60
2022-07-26T07:14:19.783Z,46.50
2022-07-26T07:17:12.247Z,46.70
2022-07-26T07:20:01.396Z,46.40
2022-07-26T07:22:48.781Z,46.40
2022-07-26T07:25:36.303Z,46.40
2022-07-26T07:28:23.784Z,46.40
2022-07-26T07:31:10.934Z,46.40
2022-07-26T07:34:00.190Z,46.30
2022-07-26T07:36:47.427Z,46.40
2022-07-26T07:39:38.494Z,46.20
2022-07-26T07:42:26.155Z,46.30
2022-07-26T07:45:13.350Z,46.20
2022-07-26T07:48:00.864Z,46.00
2022-07-26T07:50:49.515Z,46.20
2022-07-26T07:53:37.005Z,46.00
2022-07-26T07:56:24.061Z,46.00
2022-07-26T07:59:11.911Z,46.10
2022-07-26T08:02:00.025Z,46.10
2022-07-26T08:04:47.062Z,45.90
2022-07-26T08:07:36.299Z,46.00
2022-07-26T08:10:23.702Z,45.90
2022-07-26T08:13:10.917Z,45.90
2022-07-26T08:15:59.320Z,45.80
2022-07-26T08:18:57.004Z,45.70
2022-07-26T08:21:46.727Z,45.70
2022-07-26T08:24:35.527Z,45.60
2022-07-26T08:27:22.622Z,45.60
2022-07-26T08:30:11.678Z,45.60
2022-07-26T08:32:59.382Z,45.60
2022-07-26T08:35:46.697Z,45.40
2022-07-26T08:38:33.847Z,45.40
2022-07-26T08:41:23.238Z,45.50
2022-07-26T08:44:12.838Z,45.70
2022-07-26T08:47:00.431Z,45.60
2022-07-26T08:49:47.890Z,45.10
2022-07-26T08:52:35.401Z,45.30
2022-07-26T08:55:23.194Z,45.10
2022-07-26T08:58:11.964Z,45.20
2022-07-26T09:01:07.623Z,45.30
2022-07-26T09:03:54.845Z,45.20
2022-07-26T09:06:55.987Z,45.30
2022-07-26T09:10:00.339Z,45.30
2022-07-26T09:12:47.495Z,45.20
2022-07-26T09:15:36.398Z,45.10
2022-07-26T09:18:29.265Z,45.10
2022-07-26T09:21:31.769Z,45.20
2022-07-26T09:24:32.854Z,45.00
2022-07-26T09:27:21.654Z,45.60
2022-07-26T09:30:13.703Z,44.90
2022-07-26T09:33:05.591Z,45.00
2022-07-26T09:36:03.613Z,44.80
2022-07-26T09:38:53.493Z,44.90
2022-07-26T09:41:40.945Z,44.90
2022-07-26T09:44:28.591Z,44.60
2022-07-26T09:47:15.972Z,44.70
2022-07-26T09:50:16.304Z,44.50
2022-07-26T09:53:08.758Z,44.60
2022-07-26T09:55:58.044Z,44.50
2022-07-26T09:58:46.633Z,44.50
2022-07-26T10:01:34.237Z,44.60
2022-07-26T10:04:22.866Z,44.60
2022-07-26T10:07:12.099Z,44.80
2022-07-26T10:10:07.857Z,44.50
2022-07-26T10:12:55.290Z,44.50
2022-07-26T10:15:46.858Z,44.70
2022-07-26T10:18:46.029Z,44.90
2022-07-26T10:21:34.851Z,44.80
2022-07-26T10:24:28.608Z,44.80
2022-07-26T10:27:40.064Z,44.60
2022-07-26T10:30:35.110Z,44.70
2022-07-26T10:33:26.497Z,44.20
2022-07-26T10:36:34.519Z,44.30
2022-07-26T10:39:27.161Z,43.90
2022-07-26T10:42:14.412Z,44.10
2022-07-26T10:45:19.829Z,44.90
2022-07-26T10:48:14.357Z,44.10
2022-07-26T10:51:06.153Z,44.20
2022-07-26T10:54:01.887Z,44.50
2022-07-26T10:56:50.646Z,44.40
2022-07-26T10:59:55.337Z,44.20
2022-07-26T11:02:44.777Z,44.30
2022-07-26T11:05:34.943Z,44.30
2022-07-26T11:08:30.642Z,44.00
2022-07-26T11:11:30.792Z,44.60
2022-07-26T11:14:19.791Z,44.60
2022-07-26T11:17:07.460Z,44.40
2022-07-26T11:19:55.358Z,44.00
2022-07-26T11:22:42.404Z,43.60
2022-07-26T11:25:30.164Z,43.50
2022-07-26T11:28:17.588Z,43.40
2022-07-26T11:31:06.538Z,43.80
2022-07-26T11:33:55.934Z,43.30
2022-07-26T11:36:45.527Z,43.40
2022-07-26T11:39:34.848Z,43.50
2022-07-26T11:42:22.593Z,43.50
2022-07-26T11:45:11.927Z,43.10
2022-07-26T11:48:00.871Z,43.00
2022-07-26T11:50:48.342Z,43.20
2022-07-26T11:53:37.797Z,43.20
2022-07-26T11:56:25.621Z,43.20
2022-07-26T11:59:15.311Z,43.00
2022-07-26T12:02:04.134Z,43.00
2022-07-26T12:05:19.241Z,43.10
2022-07-26T12:08:08.268Z,44.40
2022-07-26T12:10:56.067Z,43.40
2022-07-26T12:13:59.445Z,43.50
2022-07-26T12:16:48.877Z,43.40
2022-07-26T12:19:36.036Z,43.50
2022-07-26T12:22:25.969Z,43.70
2022-07-26T12:25:13.288Z,43.50
2022-07-26T12:28:00.627Z,43.20
2022-07-26T12:30:47.954Z,43.10
2022-07-26T12:33:49.942Z,43.50
2022-07-26T12:36:40.474Z,44.10
2022-07-26T12:39:28.929Z,44.00
2022-07-26T12:42:23.970Z,44.20
2022-07-26T12:45:22.980Z,43.90
2022-07-26T12:48:11.941Z,44.00
2022-07-26T12:50:59.476Z,43.80
2022-07-26T12:53:46.754Z,43.50
2022-07-26T12:56:35.520Z,43.30
2022-07-26T12:59:22.671Z,44.00
2022-07-26T13:02:10.401Z,43.20
2022-07-26T13:05:00.416Z,43.30
2022-07-26T13:07:51.023Z,43.10
2022-07-26T13:10:38.383Z,42.90
2022-07-26T13:13:27.030Z,43.10
2022-07-26T13:16:14.376Z,43.10
2022-07-26T13:19:01.381Z,43.70
2022-07-26T13:21:52.746Z,43.10
2022-07-26T13:24:40.791Z,43.00
2022-07-26T13:27:35.554Z,42.90
2022-07-26T13:30:25.385Z,42.70
2022-07-26T13:33:12.603Z,42.50
2022-07-26T13:35:59.587Z,42.80
2022-07-26T13:38:47.104Z,42.60
2022-07-26T13:41:37.453Z,42.50
2022-07-26T13:44:25.452Z,42.50
2022-07-26T13:47:14.123Z,42.50
2022-07-26T13:50:01.286Z,42.40
2022-07-26T13:52:48.814Z,43.10
2022-07-26T13:55:36.249Z,42.50
2022-07-26T13:58:23.542Z,43.20
2022-07-26T14:01:11.110Z,42.40
2022-07-26T14:03:59.919Z,42.60
2022-07-26T14:06:47.299Z,42.50
2022-07-26T14:09:34.512Z,42.40
2022-07-26T14:12:21.836Z,42.30
2022-07-26T14:15:15.124Z,42.60
2022-07-26T14:18:05.687Z,42.40
2022-07-26T14:20:54.616Z,42.50
2022-07-26T14:23:42.135Z,42.60
2022-07-26T14:26:29.986Z,42.60
2022-07-26T14:29:17.138Z,42.40
2022-07-26T14:32:05.090Z,42.40
2022-07-26T14:34:52.345Z,42.20
2022-07-26T14:37:44.970Z,42.40
2022-07-26T14:40:32.905Z,42.20
2022-07-26T14:43:20.377Z,42.10
2022-07-26T14:46:08.424Z,42.10
2022-07-26T14:48:55.945Z,41.90
2022-07-26T14:51:43.040Z,42.10
2022-07-26T14:54:31.516Z,42.00
2022-07-26T14:57:19.814Z,42.10
2022-07-26T15:00:10.649Z,41.90
2022-07-26T15:02:57.937Z,41.50
2022-07-26T15:05:45.511Z,41.70
2022-07-26T15:08:32.892Z,41.90
2022-07-26T15:11:21.546Z,41.60
2022-07-26T15:14:08.744Z,41.70
2022-07-26T15:16:56.447Z,41.80
2022-07-26T15:19:43.600Z,41.50
2022-07-26T15:22:30.994Z,41.60
2022-07-26T15:25:18.522Z,41.60
2022-07-26T15:28:09.908Z,41.70
2022-07-26T15:30:57.280Z,41.50
2022-07-26T15:33:44.710Z,41.60
2022-07-26T15:36:31.919Z,41.70
2022-07-26T15:39:19.078Z,41.50
2022-07-26T15:42:09.261Z,41.10
2022-07-26T15:44:58.811Z,41.00
2022-07-26T15:47:56.265Z,41.10
2022-07-26T15:50:46.847Z,41.10
2022-07-26T15:53:36.057Z,41.10
2022-07-26T15:56:23.129Z,41.10
2022-07-26T15:59:10.991Z,41.10
2022-07-26T16:02:00.221Z,41.80
2022-07-26T16:04:47.496Z,41.00
2022-07-26T16:07:35.623Z,41.10
2022-07-26T16:10:23.230Z,41.00
2022-07-26T16:13:10.916Z,41.10
2022-07-26T16:15:58.430Z,41.20
2022-07-26T16:18:46.922Z,41.30
2022-07-26T16:21:34.287Z,41.20
2022-07-26T16:24:21.685Z,41.30
2022-07-26T16:27:08.762Z,41.20
2022-07-26T16:29:56.186Z,41.30
2022-07-26T16:32:43.569Z,41.10
2022-07-26T16:35:32.362Z,41.10
2022-07-26T16:38:20.157Z,40.80
2022-07-26T16:41:08.169Z,41.10
2022-07-26T16:43:55.795Z,40.80
2022-07-26T16:46:43.027Z,40.40
2022-07-26T16:49:32.338Z,40.60
2022-07-26T16:52:23.270Z,40.80
2022-07-26T16:55:11.717Z,40.90
2022-07-26T16:57:59.297Z,41.00
2022-07-26T17:00:47.229Z,41.20
2022-07-26T17:03:35.408Z,42.30
2022-07-26T17:06:23.539Z,42.20
2022-07-26T17:09:15.184Z,42.80
2022-07-26T17:12:06.380Z,42.70
2022-07-26T17:14:54.297Z,42.80
2022-07-26T17:17:45.682Z,42.30
2022-07-26T17:20:36.075Z,42.40
2022-07-26T17:23:23.678Z,43.20
2022-07-26T17:26:12.860Z,43.30
2022-07-26T17:29:00.510Z,43.40
2022-07-26T17:31:49.615Z,42.50
2022-07-26T17:34:37.164Z,43.00
2022-07-26T17:37:24.472Z,43.30
2022-07-26T17:40:13.395Z,43.10
2022-07-26T17:43:02.317Z,43.00
2022-07-26T17:45:49.770Z,43.20
2022-07-26T17:48:36.999Z,43.10
2022-07-26T17:51:24.035Z,43.40
2022-07-26T17:54:11.477Z,43.40
2022-07-26T17:56:58.536Z,43.80
2022-07-26T17:59:47.831Z,43.80
2022-07-26T18:02:35.280Z,43.80
2022-07-26T18:05:27.248Z,43.90
2022-07-26T18:08:19.609Z,44.10
2022-07-26T18:11:08.506Z,44.50
2022-07-26T18:13:56.398Z,44.40
2022-07-26T18:16:48.314Z,44.20
2022-07-26T18:19:41.803Z,43.60
2022-07-26T18:22:29.285Z,43.30
2022-07-26T18:25:16.980Z,43.20
2022-07-26T18:28:07.108Z,43.00
2022-07-26T18:30:54.967Z,43.20
2022-07-26T18:33:43.711Z,43.10
2022-07-26T18:36:31.515Z,42.80
2022-07-26T18:39:19.081Z,43.10
2022-07-26T18:42:06.864Z,43.50
2022-07-26T18:44:54.240Z,43.50
2022-07-26T18:47:41.864Z,43.60
2022-07-26T18:50:32.168Z,43.70
2022-07-26T18:53:20.055Z,43.90
2022-07-26T18:56:07.738Z,43.30
2022-07-26T18:58:54.851Z,43.00
2022-07-26T19:01:42.156Z,42.90
2022-07-26T19:04:29.949Z,43.00
2022-07-26T19:07:18.528Z,43.20
2022-07-26T19:10:07.549Z,43.40
2022-07-26T19:12:54.730Z,43.60
2022-07-26T19:15:41.893Z,43.40
2022-07-26T19:18:28.956Z,43.40
2022-07-26T19:21:16.144Z,43.30
2022-07-26T19:24:05.523Z,44.00
2022-07-26T19:26:52.837Z,44.10
2022-07-26T19:29:40.167Z,43.90
2022-07-26T19:32:33.143Z,44.00
2022-07-26T19:35:20.910Z,44.20
2022-07-26T19:38:08.108Z,44.20
2022-07-26T19:40:56.823Z,44.40
2022-07-26T19:43:44.102Z,44.00
2022-07-26T19:46:31.215Z,43.80
2022-07-26T19:49:18.458Z,43.70
2022-07-26T19:52:11.189Z,43.60
2022-07-26T19:54:59.137Z,43.40
2022-07-26T19:57:47.670Z,43.50
2022-07-26T20:00:35.196Z,44.00
2022-07-26T20:03:22.885Z,43.40
2022-07-26T20:06:10.678Z,43.20
2022-07-26T20:08:57.847Z,43.20
2022-07-26T20:11:50.710Z,43.30
2022-07-26T20:14:39.122Z,43.20
2022-07-26T20:17:26.945Z,43.10
2022-07-26T20:20:17.802Z,43.10
2022-07-26T20:23:07.340Z,43.20
2022-07-26T20:25:54.428Z,43.90
2022-07-26T20:28:41.613Z,43.20
2022-07-26T20:31:30.205Z,43.10
2022-07-26T20:34:17.591Z,42.90
2022-07-26T20:37:05.072Z,42.90
2022-07-26T20:39:52.325Z,42.80
2022-07-26T20:42:41.906Z,43.00
2022-07-26T20:45:31.885Z,42.80
2022-07-26T20:48:20.763Z,42.90
2022-07-26T20:51:13.449Z,43.10
2022-07-26T20:54:01.160Z,43.00
2022-07-26T20:56:48.274Z,43.00
2022-07-26T20:59:36.160Z,43.20
2022-07-26T21:02:23.568Z,42.80
2022-07-26T21:05:13.464Z,42.80
2022-07-26T21:08:00.577Z,42.80
2022-07-26T21:10:48.253Z,42.70
2022-07-26T21:13:36.440Z,42.70
2022-07-26T21:16:23.779Z,42.70
2022-07-26T21:19:11.417Z,42.60
2022-07-26T21:22:00.545Z,43.40
2022-07-26T21:24:47.759Z,43.10
2022-07-26T21:27:34.898Z,43.10
2022-07-26T21:30:22.087Z,43.10
2022-07-26T21:33:09.638Z,43.00
2022-07-26T21:35:56.843Z,43.20
2022-07-26T21:38:45.493Z,43.30
2022-07-26T21:41:32.567Z,43.50
2022-07-26T21:44:20.676Z,43.40
2022-07-26T21:47:08.065Z,43.50
2022-07-26T21:49:55.478Z,43.40
2022-07-26T21:52:42.806Z,43.70
2022-07-26T21:55:31.226Z,43.70
2022-07-26T21:58:18.565Z,43.50
2022-07-26T22:01:07.378Z,43.40
2022-07-26T22:03:55.088Z,43.20
2022-07-26T22:06:42.242Z,43.40
2022-07-26T22:09:29.501Z,43.80
2022-07-26T22:12:18.265Z,43.90
2022-07-26T22:15:06.945Z,44.20
2022-07-26T22:17:55.083Z,44.10
2022-07-26T22:20:43.100Z,44.10
2022-07-26T22:23:31.099Z,44.30
2022-07-26T22:26:20.677Z,44.20
2022-07-26T22:29:10.165Z,44.10
2022-07-26T22:31:57.937Z,44.00
2022-07-26T22:34:45.325Z,43.80
2022-07-26T22:37:32.659Z,43.50
2022-07-26T22:40:20.194Z,43.40
2022-07-26T22:43:08.465Z,43.30
2022-07-26T22:45:57.233Z,43.20
2022-07-26T22:48:47.939Z,43.30
2022-07-26T22:51:35.175Z,43.20
2022-07-26T22:54:24.088Z,43.50
2022-07-26T22:57:11.611Z,43.50
2022-07-26T22:59:58.945Z,43.60
2022-07-26T23:02:48.851Z,43.70
2022-07-26T23:05:46.381Z,43.90
2022-07-26T23:08:50.523Z,43.80
2022-07-26T23:11:37.871Z,43.80
2022-07-26T23:14:25.019Z,43.60
2022-07-26T23:17:12.135Z,43.50
2022-07-26T23:20:00.860Z,43.60
2022-07-26T23:22:48.186Z,43.70
2022-07-26T23:25:35.318Z,43.90
2022-07-26T23:28:36.003Z,43.70
2022-07-26T23:31:25.481Z,43.80
2022-07-26T23:34:12.552Z,43.90
2022-07-26T23:37:01.339Z,44.00
2022-07-26T23:39:48.508Z,44.10
2022-07-26T23:42:35.677Z,44.00
2022-07-26T23:45:23.215Z,44.10
2022-07-26T23:48:10.181Z,44.10
2022-07-26T23:50:57.382Z,44.10
2022-07-26T23:53:46.058Z,44.20
2022-07-26T23:56:33.204Z,44.30
2022-07-26T23:59:20.682Z,44.30
